sensor_id;sensor_type;location;lat;lon;timestamp;P1;durP1;ratioP1;P2;durP2;ratioP2
5475;SDS011;2760;50.000;9.194;2023-07-13T00:16:42;3.20;;;2.10;;
5475;SDS011;2760;50.000;9.194;2023-07-13T00:19:55;2.63;;;1.80;;
5475;SDS011;2760;50.000;9.194;2023-07-13T00:34:22;3.73;;;2.00;;
5475;SDS011;2760;50.000;9.194;2023-07-13T00:37:43;2.00;;;1.83;;
5475;SDS011;2760;50.000;9.194;2023-07-13T00:41:02;5.30;;;2.20;;
5475;SDS011;2760;50.000;9.194;2023-07-13T00:44:09;2.33;;;1.80;;
5475;SDS011;2760;50.000;9.194;2023-07-13T01:18:23;2.50;;;1.80;;
5475;SDS011;2760;50.000;9.194;2023-07-13T01:36:35;8.13;;;5.57;;
5475;SDS011;2760;50.000;9.194;2023-07-13T01:40:37;3.13;;;2.30;;
5475;SDS011;2760;50.000;9.194;2023-07-13T01:43:35;2.90;;;2.10;;
5475;SDS011;2760;50.000;9.194;2023-07-13T01:46:37;2.20;;;2.00;;
5475;SDS011;2760;50.000;9.194;2023-07-13T01:49:25;3.47;;;1.93;;
5475;SDS011;2760;50.000;9.194;2023-07-13T01:59:00;2.43;;;1.73;;
5475;SDS011;2760;50.000;9.194;2023-07-13T02:02:04;3.67;;;2.30;;
5475;SDS011;2760;50.000;9.194;2023-07-13T02:05:24;2.93;;;2.30;;
5475;SDS011;2760;50.000;9.194;2023-07-13T02:09:05;3.30;;;2.20;;
5475;SDS011;2760;50.000;9.194;2023-07-13T02:15:19;5.93;;;2.50;;
5475;SDS011;2760;50.000;9.194;2023-07-13T02:22:04;3.33;;;2.23;;
5475;SDS011;2760;50.000;9.194;2023-07-13T02:25:36;4.77;;;2.03;;
5475;SDS011;2760;50.000;9.194;2023-07-13T02:32:01;7.17;;;1.90;;
5475;SDS011;2760;50.000;9.194;2023-07-13T02:34:55;2.30;;;2.10;;
5475;SDS011;2760;50.000;9.194;2023-07-13T02:37:54;4.87;;;2.27;;
5475;SDS011;2760;50.000;9.194;2023-07-13T02:40:23;6.67;;;2.37;;
5475;SDS011;2760;50.000;9.194;2023-07-13T02:43:09;2.63;;;2.27;;
5475;SDS011;2760;50.000;9.194;2023-07-13T02:57:27;3.93;;;2.00;;
5475;SDS011;2760;50.000;9.194;2023-07-13T03:00:05;4.73;;;2.40;;
5475;SDS011;2760;50.000;9.194;2023-07-13T03:02:51;5.63;;;2.77;;
5475;SDS011;2760;50.000;9.194;2023-07-13T03:05:36;5.33;;;2.63;;
5475;SDS011;2760;50.000;9.194;2023-07-13T03:08:22;3.30;;;2.43;;
5475;SDS011;2760;50.000;9.194;2023-07-13T03:11:07;8.93;;;2.33;;
5475;SDS011;2760;50.000;9.194;2023-07-13T03:14:00;2.70;;;2.07;;
5475;SDS011;2760;50.000;9.194;2023-07-13T03:16:33;2.50;;;2.30;;
5475;SDS011;2760;50.000;9.194;2023-07-13T03:19:05;4.00;;;2.40;;
5475;SDS011;2760;50.000;9.194;2023-07-13T03:21:35;4.67;;;3.07;;
5475;SDS011;2760;50.000;9.194;2023-07-13T03:24:17;2.30;;;2.10;;
5475;SDS011;2760;50.000;9.194;2023-07-13T03:26:53;6.63;;;2.30;;
5475;SDS011;2760;50.000;9.194;2023-07-13T03:29:22;4.57;;;2.63;;
5475;SDS011;2760;50.000;9.194;2023-07-13T03:31:51;3.10;;;2.83;;
5475;SDS011;2760;50.000;9.194;2023-07-13T03:34:25;8.10;;;2.57;;
5475;SDS011;2760;50.000;9.194;2023-07-13T03:36:53;4.63;;;2.20;;
5475;SDS011;2760;50.000;9.194;2023-07-13T03:39:21;3.80;;;3.20;;
5475;SDS011;2760;50.000;9.194;2023-07-13T03:41:54;4.37;;;2.10;;
5475;SDS011;2760;50.000;9.194;2023-07-13T03:44:28;3.97;;;2.73;;
5475;SDS011;2760;50.000;9.194;2023-07-13T04:25:33;3.07;;;2.40;;
5475;SDS011;2760;50.000;9.194;2023-07-13T04:28:24;9.80;;;2.70;;
5475;SDS011;2760;50.000;9.194;2023-07-13T04:35:13;3.43;;;2.80;;
5475;SDS011;2760;50.000;9.194;2023-07-13T04:38:00;7.60;;;3.00;;
5475;SDS011;2760;50.000;9.194;2023-07-13T04:40:27;4.80;;;2.50;;
5475;SDS011;2760;50.000;9.194;2023-07-13T04:42:59;3.60;;;2.60;;
5475;SDS011;2760;50.000;9.194;2023-07-13T04:45:27;5.97;;;3.20;;
5475;SDS011;2760;50.000;9.194;2023-07-13T04:47:54;7.10;;;3.00;;
5475;SDS011;2760;50.000;9.194;2023-07-13T04:50:21;5.83;;;3.20;;
5475;SDS011;2760;50.000;9.194;2023-07-13T04:52:48;10.73;;;3.17;;
5475;SDS011;2760;50.000;9.194;2023-07-13T04:55:16;6.70;;;2.40;;
5475;SDS011;2760;50.000;9.194;2023-07-13T05:05:00;5.00;;;2.70;;
5475;SDS011;2760;50.000;9.194;2023-07-13T05:07:29;3.43;;;2.30;;
5475;SDS011;2760;50.000;9.194;2023-07-13T05:09:58;3.80;;;2.80;;
5475;SDS011;2760;50.000;9.194;2023-07-13T05:12:25;3.67;;;2.83;;
5475;SDS011;2760;50.000;9.194;2023-07-13T05:14:52;4.57;;;3.17;;
5475;SDS011;2760;50.000;9.194;2023-07-13T05:17:19;5.53;;;3.07;;
5475;SDS011;2760;50.000;9.194;2023-07-13T05:19:46;4.77;;;3.17;;
5475;SDS011;2760;50.000;9.194;2023-07-13T05:22:15;4.63;;;2.67;;
5475;SDS011;2760;50.000;9.194;2023-07-13T05:24:42;5.50;;;2.40;;
5475;SDS011;2760;50.000;9.194;2023-07-13T05:27:09;3.10;;;2.80;;
5475;SDS011;2760;50.000;9.194;2023-07-13T05:29:36;4.90;;;2.67;;
5475;SDS011;2760;50.000;9.194;2023-07-13T05:32:03;2.70;;;2.40;;
5475;SDS011;2760;50.000;9.194;2023-07-13T05:34:31;6.87;;;2.90;;
5475;SDS011;2760;50.000;9.194;2023-07-13T05:37:03;14.43;;;2.87;;
5475;SDS011;2760;50.000;9.194;2023-07-13T05:39:33;5.50;;;3.00;;
5475;SDS011;2760;50.000;9.194;2023-07-13T05:42:06;3.70;;;2.40;;
5475;SDS011;2760;50.000;9.194;2023-07-13T05:44:37;7.90;;;2.50;;
5475;SDS011;2760;50.000;9.194;2023-07-13T05:47:05;6.70;;;4.30;;
5475;SDS011;2760;50.000;9.194;2023-07-13T05:50:17;7.67;;;2.80;;
5475;SDS011;2760;50.000;9.194;2023-07-13T05:52:50;4.70;;;2.67;;
5475;SDS011;2760;50.000;9.194;2023-07-13T05:55:26;8.40;;;2.77;;
5475;SDS011;2760;50.000;9.194;2023-07-13T05:58:26;7.97;;;3.13;;
5475;SDS011;2760;50.000;9.194;2023-07-13T06:01:10;4.67;;;2.80;;
5475;SDS011;2760;50.000;9.194;2023-07-13T06:04:30;8.77;;;2.40;;
5475;SDS011;2760;50.000;9.194;2023-07-13T06:07:00;5.60;;;2.87;;
5475;SDS011;2760;50.000;9.194;2023-07-13T06:09:50;8.57;;;2.40;;
5475;SDS011;2760;50.000;9.194;2023-07-13T06:13:05;12.63;;;2.33;;
5475;SDS011;2760;50.000;9.194;2023-07-13T06:18:29;3.53;;;2.00;;
5475;SDS011;2760;50.000;9.194;2023-07-13T06:21:09;6.20;;;2.63;;
5475;SDS011;2760;50.000;9.194;2023-07-13T06:23:47;6.03;;;1.97;;
5475;SDS011;2760;50.000;9.194;2023-07-13T06:26:32;3.93;;;2.20;;
5475;SDS011;2760;50.000;9.194;2023-07-13T06:29:01;7.77;;;2.20;;
5475;SDS011;2760;50.000;9.194;2023-07-13T06:31:30;5.10;;;2.20;;
5475;SDS011;2760;50.000;9.194;2023-07-13T06:33:58;3.63;;;2.10;;
5475;SDS011;2760;50.000;9.194;2023-07-13T06:36:28;4.30;;;1.67;;
5475;SDS011;2760;50.000;9.194;2023-07-13T06:39:13;5.23;;;1.97;;
5475;SDS011;2760;50.000;9.194;2023-07-13T06:42:07;5.50;;;1.90;;
5475;SDS011;2760;50.000;9.194;2023-07-13T06:48:47;5.27;;;2.10;;
5475;SDS011;2760;50.000;9.194;2023-07-13T07:01:06;12.93;;;2.80;;
5475;SDS011;2760;50.000;9.194;2023-07-13T07:11:47;6.17;;;1.67;;
5475;SDS011;2760;50.000;9.194;2023-07-13T07:19:03;3.17;;;1.57;;
5475;SDS011;2760;50.000;9.194;2023-07-13T07:21:43;2.10;;;1.33;;
5475;SDS011;2760;50.000;9.194;2023-07-13T07:24:20;3.10;;;1.77;;
5475;SDS011;2760;50.000;9.194;2023-07-13T07:27:02;2.80;;;1.30;;
5475;SDS011;2760;50.000;9.194;2023-07-13T07:29:58;2.97;;;2.13;;
5475;SDS011;2760;50.000;9.194;2023-07-13T07:33:10;7.93;;;2.10;;
5475;SDS011;2760;50.000;9.194;2023-07-13T07:35:42;2.90;;;1.33;;
5475;SDS011;2760;50.000;9.194;2023-07-13T07:38:14;3.43;;;1.30;;
5475;SDS011;2760;50.000;9.194;2023-07-13T08:03:08;6.00;;;1.97;;
5475;SDS011;2760;50.000;9.194;2023-07-13T08:05:51;8.20;;;1.40;;
5475;SDS011;2760;50.000;9.194;2023-07-13T09:01:33;3.67;;;1.20;;
5475;SDS011;2760;50.000;9.194;2023-07-13T09:14:19;5.77;;;1.30;;
5475;SDS011;2760;50.000;9.194;2023-07-13T09:17:15;8.03;;;1.53;;
5475;SDS011;2760;50.000;9.194;2023-07-13T09:20:03;1.27;;;1.00;;
5475;SDS011;2760;50.000;9.194;2023-07-13T09:23:10;8.40;;;1.57;;
5475;SDS011;2760;50.000;9.194;2023-07-13T09:25:54;4.73;;;1.90;;
5475;SDS011;2760;50.000;9.194;2023-07-13T09:28:33;3.67;;;1.90;;
5475;SDS011;2760;50.000;9.194;2023-07-13T09:31:11;3.33;;;1.37;;
5475;SDS011;2760;50.000;9.194;2023-07-13T09:34:12;4.97;;;1.30;;
5475;SDS011;2760;50.000;9.194;2023-07-13T09:37:37;7.90;;;1.70;;
5475;SDS011;2760;50.000;9.194;2023-07-13T09:40:21;3.63;;;1.30;;
5475;SDS011;2760;50.000;9.194;2023-07-13T09:42:56;2.30;;;1.33;;
5475;SDS011;2760;50.000;9.194;2023-07-13T09:45:38;8.10;;;1.73;;
5475;SDS011;2760;50.000;9.194;2023-07-13T09:48:15;5.07;;;1.47;;
5475;SDS011;2760;50.000;9.194;2023-07-13T09:50:51;4.57;;;1.53;;
5475;SDS011;2760;50.000;9.194;2023-07-13T09:53:43;2.87;;;1.40;;
5475;SDS011;2760;50.000;9.194;2023-07-13T10:03:59;2.90;;;1.13;;
5475;SDS011;2760;50.000;9.194;2023-07-13T10:06:38;2.93;;;1.17;;
5475;SDS011;2760;50.000;9.194;2023-07-13T10:12:05;1.60;;;1.10;;
5475;SDS011;2760;50.000;9.194;2023-07-13T10:17:41;2.63;;;1.47;;
5475;SDS011;2760;50.000;9.194;2023-07-13T10:20:22;4.47;;;1.77;;
5475;SDS011;2760;50.000;9.194;2023-07-13T10:23:02;1.90;;;1.13;;
5475;SDS011;2760;50.000;9.194;2023-07-13T10:25:57;3.00;;;1.30;;
5475;SDS011;2760;50.000;9.194;2023-07-13T10:28:37;2.60;;;1.23;;
5475;SDS011;2760;50.000;9.194;2023-07-13T10:31:09;5.23;;;2.33;;
5475;SDS011;2760;50.000;9.194;2023-07-13T10:34:03;1.83;;;1.27;;
5475;SDS011;2760;50.000;9.194;2023-07-13T10:47:19;3.93;;;1.20;;
5475;SDS011;2760;50.000;9.194;2023-07-13T10:57:22;2.60;;;1.40;;
5475;SDS011;2760;50.000;9.194;2023-07-13T11:04:11;4.83;;;1.27;;
5475;SDS011;2760;50.000;9.194;2023-07-13T11:13:39;2.63;;;1.13;;
5475;SDS011;2760;50.000;9.194;2023-07-13T11:16:37;1.73;;;1.17;;
5475;SDS011;2760;50.000;9.194;2023-07-13T11:22:11;3.17;;;1.40;;
5475;SDS011;2760;50.000;9.194;2023-07-13T11:28:20;16.23;;;1.60;;
5475;SDS011;2760;50.000;9.194;2023-07-13T11:31:14;1.73;;;1.10;;
5475;SDS011;2760;50.000;9.194;2023-07-13T11:33:51;3.87;;;1.50;;
5475;SDS011;2760;50.000;9.194;2023-07-13T11:36:30;3.80;;;1.70;;
5475;SDS011;2760;50.000;9.194;2023-07-13T11:39:04;2.57;;;1.60;;
5475;SDS011;2760;50.000;9.194;2023-07-13T11:41:43;4.07;;;1.30;;
5475;SDS011;2760;50.000;9.194;2023-07-13T11:44:15;3.90;;;1.10;;
5475;SDS011;2760;50.000;9.194;2023-07-13T11:46:50;3.67;;;1.70;;
5475;SDS011;2760;50.000;9.194;2023-07-13T11:49:22;2.60;;;1.50;;
5475;SDS011;2760;50.000;9.194;2023-07-13T11:51:56;2.90;;;1.20;;
5475;SDS011;2760;50.000;9.194;2023-07-13T11:54:30;1.70;;;1.20;;
5475;SDS011;2760;50.000;9.194;2023-07-13T11:57:24;1.20;;;1.00;;
5475;SDS011;2760;50.000;9.194;2023-07-13T11:59:55;2.90;;;1.40;;
5475;SDS011;2760;50.000;9.194;2023-07-13T12:38:17;4.27;;;1.80;;
5475;SDS011;2760;50.000;9.194;2023-07-13T12:41:47;1.83;;;1.53;;
5475;SDS011;2760;50.000;9.194;2023-07-13T12:48:27;1.73;;;1.63;;
5475;SDS011;2760;50.000;9.194;2023-07-13T12:58:20;6.47;;;1.60;;
5475;SDS011;2760;50.000;9.194;2023-07-13T13:05:12;9.37;;;1.60;;
5475;SDS011;2760;50.000;9.194;2023-07-13T13:07:49;6.40;;;1.70;;
5475;SDS011;2760;50.000;9.194;2023-07-13T13:10:16;9.60;;;1.40;;
5475;SDS011;2760;50.000;9.194;2023-07-13T13:12:47;6.30;;;1.40;;
5475;SDS011;2760;50.000;9.194;2023-07-13T13:15:14;2.03;;;1.37;;
5475;SDS011;2760;50.000;9.194;2023-07-13T13:17:41;6.90;;;1.80;;
5475;SDS011;2760;50.000;9.194;2023-07-13T13:20:13;4.03;;;1.90;;
5475;SDS011;2760;50.000;9.194;2023-07-13T13:22:42;3.67;;;2.07;;
5475;SDS011;2760;50.000;9.194;2023-07-13T13:25:10;3.57;;;1.50;;
5475;SDS011;2760;50.000;9.194;2023-07-13T13:27:37;3.13;;;1.40;;
5475;SDS011;2760;50.000;9.194;2023-07-13T13:30:11;3.03;;;1.47;;
5475;SDS011;2760;50.000;9.194;2023-07-13T13:32:39;6.13;;;1.40;;
5475;SDS011;2760;50.000;9.194;2023-07-13T13:35:09;2.40;;;1.10;;
5475;SDS011;2760;50.000;9.194;2023-07-13T13:37:41;2.60;;;1.37;;
5475;SDS011;2760;50.000;9.194;2023-07-13T13:40:13;2.87;;;2.00;;
5475;SDS011;2760;50.000;9.194;2023-07-13T13:42:42;4.40;;;1.47;;
5475;SDS011;2760;50.000;9.194;2023-07-13T13:45:11;2.10;;;1.30;;
5475;SDS011;2760;50.000;9.194;2023-07-13T13:47:39;2.53;;;1.60;;
5475;SDS011;2760;50.000;9.194;2023-07-13T13:50:11;3.33;;;1.63;;
5475;SDS011;2760;50.000;9.194;2023-07-13T13:52:39;1.87;;;1.60;;
5475;SDS011;2760;50.000;9.194;2023-07-13T13:55:11;3.03;;;1.23;;
5475;SDS011;2760;50.000;9.194;2023-07-13T13:57:39;2.67;;;1.83;;
5475;SDS011;2760;50.000;9.194;2023-07-13T14:00:07;4.63;;;1.40;;
5475;SDS011;2760;50.000;9.194;2023-07-13T14:02:41;4.17;;;1.53;;
5475;SDS011;2760;50.000;9.194;2023-07-13T14:05:12;3.00;;;1.43;;
5475;SDS011;2760;50.000;9.194;2023-07-13T14:07:41;4.53;;;1.67;;
5475;SDS011;2760;50.000;9.194;2023-07-13T14:10:10;3.33;;;1.57;;
5475;SDS011;2760;50.000;9.194;2023-07-13T14:12:40;2.60;;;1.20;;
5475;SDS011;2760;50.000;9.194;2023-07-13T14:15:12;6.23;;;2.53;;
5475;SDS011;2760;50.000;9.194;2023-07-13T14:17:45;3.33;;;1.77;;
5475;SDS011;2760;50.000;9.194;2023-07-13T14:20:14;2.57;;;1.60;;
5475;SDS011;2760;50.000;9.194;2023-07-13T14:22:42;1.73;;;1.00;;
5475;SDS011;2760;50.000;9.194;2023-07-13T14:25:10;2.67;;;1.30;;
5475;SDS011;2760;50.000;9.194;2023-07-13T14:27:37;6.30;;;1.63;;
5475;SDS011;2760;50.000;9.194;2023-07-13T14:30:07;3.83;;;1.43;;
5475;SDS011;2760;50.000;9.194;2023-07-13T14:32:39;2.43;;;1.40;;
5475;SDS011;2760;50.000;9.194;2023-07-13T14:35:07;5.17;;;1.83;;
5475;SDS011;2760;50.000;9.194;2023-07-13T14:37:36;8.57;;;2.80;;
5475;SDS011;2760;50.000;9.194;2023-07-13T14:40:08;5.77;;;2.67;;
5475;SDS011;2760;50.000;9.194;2023-07-13T14:42:39;9.50;;;1.53;;
5475;SDS011;2760;50.000;9.194;2023-07-13T14:45:12;4.10;;;1.50;;
5475;SDS011;2760;50.000;9.194;2023-07-13T14:47:40;3.27;;;1.47;;
5475;SDS011;2760;50.000;9.194;2023-07-13T14:50:13;2.33;;;1.40;;
5475;SDS011;2760;50.000;9.194;2023-07-13T14:52:42;2.50;;;1.80;;
5475;SDS011;2760;50.000;9.194;2023-07-13T14:55:10;8.33;;;1.73;;
5475;SDS011;2760;50.000;9.194;2023-07-13T14:57:38;1.60;;;1.40;;
5475;SDS011;2760;50.000;9.194;2023-07-13T15:00:07;3.33;;;1.33;;
5475;SDS011;2760;50.000;9.194;2023-07-13T15:02:40;2.27;;;1.47;;
5475;SDS011;2760;50.000;9.194;2023-07-13T15:05:16;1.50;;;1.13;;
5475;SDS011;2760;50.000;9.194;2023-07-13T15:07:44;6.77;;;1.60;;
5475;SDS011;2760;50.000;9.194;2023-07-13T15:10:12;6.10;;;1.30;;
5475;SDS011;2760;50.000;9.194;2023-07-13T15:12:40;2.03;;;1.43;;
5475;SDS011;2760;50.000;9.194;2023-07-13T15:15:07;3.13;;;1.10;;
5475;SDS011;2760;50.000;9.194;2023-07-13T15:17:36;2.40;;;1.60;;
5475;SDS011;2760;50.000;9.194;2023-07-13T15:20:05;3.87;;;1.53;;
5475;SDS011;2760;50.000;9.194;2023-07-13T15:22:49;5.30;;;1.70;;
5475;SDS011;2760;50.000;9.194;2023-07-13T15:25:20;2.67;;;2.00;;
5475;SDS011;2760;50.000;9.194;2023-07-13T15:27:49;3.10;;;1.70;;
5475;SDS011;2760;50.000;9.194;2023-07-13T15:30:18;3.63;;;1.60;;
5475;SDS011;2760;50.000;9.194;2023-07-13T15:32:46;2.70;;;1.60;;
5475;SDS011;2760;50.000;9.194;2023-07-13T15:35:15;3.27;;;1.33;;
5475;SDS011;2760;50.000;9.194;2023-07-13T15:37:43;4.30;;;1.70;;
5475;SDS011;2760;50.000;9.194;2023-07-13T15:40:12;2.23;;;1.17;;
5475;SDS011;2760;50.000;9.194;2023-07-13T15:42:40;3.63;;;1.97;;
5475;SDS011;2760;50.000;9.194;2023-07-13T15:45:18;3.70;;;1.57;;
5475;SDS011;2760;50.000;9.194;2023-07-13T15:47:47;1.90;;;1.30;;
5475;SDS011;2760;50.000;9.194;2023-07-13T15:50:15;4.03;;;1.43;;
5475;SDS011;2760;50.000;9.194;2023-07-13T15:52:45;6.23;;;1.80;;
5475;SDS011;2760;50.000;9.194;2023-07-13T15:55:16;3.60;;;2.00;;
5475;SDS011;2760;50.000;9.194;2023-07-13T15:57:44;5.33;;;1.27;;
5475;SDS011;2760;50.000;9.194;2023-07-13T16:00:18;5.30;;;2.27;;
5475;SDS011;2760;50.000;9.194;2023-07-13T16:02:46;3.57;;;2.37;;
5475;SDS011;2760;50.000;9.194;2023-07-13T16:05:14;2.53;;;1.23;;
5475;SDS011;2760;50.000;9.194;2023-07-13T16:07:43;2.90;;;1.60;;
5475;SDS011;2760;50.000;9.194;2023-07-13T16:10:17;1.53;;;1.23;;
5475;SDS011;2760;50.000;9.194;2023-07-13T16:12:46;3.00;;;1.30;;
5475;SDS011;2760;50.000;9.194;2023-07-13T16:15:14;8.40;;;1.47;;
5475;SDS011;2760;50.000;9.194;2023-07-13T16:17:44;3.60;;;1.60;;
5475;SDS011;2760;50.000;9.194;2023-07-13T16:20:12;2.47;;;1.60;;
5475;SDS011;2760;50.000;9.194;2023-07-13T16:22:40;3.10;;;1.63;;
5475;SDS011;2760;50.000;9.194;2023-07-13T16:25:13;4.83;;;1.23;;
5475;SDS011;2760;50.000;9.194;2023-07-13T16:27:46;1.77;;;1.10;;
5475;SDS011;2760;50.000;9.194;2023-07-13T16:30:15;3.23;;;1.77;;
5475;SDS011;2760;50.000;9.194;2023-07-13T16:32:47;2.70;;;1.20;;
5475;SDS011;2760;50.000;9.194;2023-07-13T16:35:16;5.63;;;1.40;;
5475;SDS011;2760;50.000;9.194;2023-07-13T16:37:47;2.40;;;1.20;;
5475;SDS011;2760;50.000;9.194;2023-07-13T16:40:26;2.80;;;1.50;;
5475;SDS011;2760;50.000;9.194;2023-07-13T16:42:54;2.37;;;1.20;;
5475;SDS011;2760;50.000;9.194;2023-07-13T16:45:24;3.63;;;2.07;;
5475;SDS011;2760;50.000;9.194;2023-07-13T16:48:12;5.60;;;1.70;;
5475;SDS011;2760;50.000;9.194;2023-07-13T16:50:41;3.10;;;1.67;;
5475;SDS011;2760;50.000;9.194;2023-07-13T16:53:10;3.93;;;1.47;;
5475;SDS011;2760;50.000;9.194;2023-07-13T16:55:45;1.83;;;1.17;;
5475;SDS011;2760;50.000;9.194;2023-07-13T16:58:13;2.90;;;1.97;;
5475;SDS011;2760;50.000;9.194;2023-07-13T17:00:41;7.97;;;1.77;;
5475;SDS011;2760;50.000;9.194;2023-07-13T17:03:08;4.73;;;1.40;;
5475;SDS011;2760;50.000;9.194;2023-07-13T17:05:43;3.03;;;1.40;;
5475;SDS011;2760;50.000;9.194;2023-07-13T17:08:31;5.10;;;1.70;;
5475;SDS011;2760;50.000;9.194;2023-07-13T17:11:01;3.63;;;1.40;;
5475;SDS011;2760;50.000;9.194;2023-07-13T17:13:29;1.90;;;1.17;;
5475;SDS011;2760;50.000;9.194;2023-07-13T17:15:56;2.80;;;1.20;;
5475;SDS011;2760;50.000;9.194;2023-07-13T17:18:24;4.00;;;1.40;;
5475;SDS011;2760;50.000;9.194;2023-07-13T17:20:52;1.57;;;1.20;;
5475;SDS011;2760;50.000;9.194;2023-07-13T17:23:21;3.80;;;1.40;;
5475;SDS011;2760;50.000;9.194;2023-07-13T17:25:50;2.83;;;1.93;;
5475;SDS011;2760;50.000;9.194;2023-07-13T17:28:23;1.87;;;1.10;;
5475;SDS011;2760;50.000;9.194;2023-07-13T17:30:51;3.23;;;1.30;;
5475;SDS011;2760;50.000;9.194;2023-07-13T17:33:25;3.30;;;1.40;;
5475;SDS011;2760;50.000;9.194;2023-07-13T17:36:02;4.70;;;1.40;;
5475;SDS011;2760;50.000;9.194;2023-07-13T17:38:36;2.87;;;1.40;;
5475;SDS011;2760;50.000;9.194;2023-07-13T17:41:12;6.03;;;1.20;;
5475;SDS011;2760;50.000;9.194;2023-07-13T17:43:42;9.33;;;1.40;;
5475;SDS011;2760;50.000;9.194;2023-07-13T17:46:11;2.57;;;1.30;;
5475;SDS011;2760;50.000;9.194;2023-07-13T17:48:41;4.43;;;1.60;;
5475;SDS011;2760;50.000;9.194;2023-07-13T17:51:12;4.63;;;1.40;;
5475;SDS011;2760;50.000;9.194;2023-07-13T17:53:41;1.83;;;1.40;;
5475;SDS011;2760;50.000;9.194;2023-07-13T17:56:09;2.17;;;1.50;;
5475;SDS011;2760;50.000;9.194;2023-07-13T18:01:37;5.70;;;1.63;;
5475;SDS011;2760;50.000;9.194;2023-07-13T18:04:06;2.13;;;1.37;;
5475;SDS011;2760;50.000;9.194;2023-07-13T18:06:35;1.90;;;1.47;;
5475;SDS011;2760;50.000;9.194;2023-07-13T18:09:13;1.67;;;1.13;;
5475;SDS011;2760;50.000;9.194;2023-07-13T18:11:45;4.50;;;1.90;;
5475;SDS011;2760;50.000;9.194;2023-07-13T18:14:40;2.80;;;1.37;;
5475;SDS011;2760;50.000;9.194;2023-07-13T18:17:10;1.30;;;1.20;;
5475;SDS011;2760;50.000;9.194;2023-07-13T18:19:40;4.40;;;1.50;;
5475;SDS011;2760;50.000;9.194;2023-07-13T18:22:15;2.80;;;1.30;;
5475;SDS011;2760;50.000;9.194;2023-07-13T18:24:43;1.90;;;1.33;;
5475;SDS011;2760;50.000;9.194;2023-07-13T18:27:12;8.07;;;1.53;;
5475;SDS011;2760;50.000;9.194;2023-07-13T18:29:40;4.77;;;2.13;;
5475;SDS011;2760;50.000;9.194;2023-07-13T18:32:09;6.10;;;1.60;;
5475;SDS011;2760;50.000;9.194;2023-07-13T18:34:50;4.33;;;1.60;;
5475;SDS011;2760;50.000;9.194;2023-07-13T18:37:20;4.60;;;1.00;;
5475;SDS011;2760;50.000;9.194;2023-07-13T18:39:49;3.23;;;1.40;;
5475;SDS011;2760;50.000;9.194;2023-07-13T18:42:17;3.23;;;1.37;;
5475;SDS011;2760;50.000;9.194;2023-07-13T18:44:46;2.87;;;1.73;;
5475;SDS011;2760;50.000;9.194;2023-07-13T18:47:14;3.17;;;1.00;;
5475;SDS011;2760;50.000;9.194;2023-07-13T18:49:42;4.27;;;2.20;;
5475;SDS011;2760;50.000;9.194;2023-07-13T18:52:17;4.73;;;1.80;;
5475;SDS011;2760;50.000;9.194;2023-07-13T18:54:45;3.17;;;1.60;;
5475;SDS011;2760;50.000;9.194;2023-07-13T18:57:12;3.83;;;1.50;;
5475;SDS011;2760;50.000;9.194;2023-07-13T19:00:04;6.00;;;1.20;;
5475;SDS011;2760;50.000;9.194;2023-07-13T19:02:32;2.40;;;1.20;;
5475;SDS011;2760;50.000;9.194;2023-07-13T19:04:59;3.50;;;1.33;;
5475;SDS011;2760;50.000;9.194;2023-07-13T19:07:27;6.60;;;1.17;;
5475;SDS011;2760;50.000;9.194;2023-07-13T19:09:53;5.37;;;1.60;;
5475;SDS011;2760;50.000;9.194;2023-07-13T19:12:24;3.03;;;1.50;;
5475;SDS011;2760;50.000;9.194;2023-07-13T19:14:55;3.40;;;1.80;;
5475;SDS011;2760;50.000;9.194;2023-07-13T19:17:24;1.57;;;1.20;;
5475;SDS011;2760;50.000;9.194;2023-07-13T19:19:51;1.93;;;1.50;;
5475;SDS011;2760;50.000;9.194;2023-07-13T19:22:18;5.77;;;1.70;;
5475;SDS011;2760;50.000;9.194;2023-07-13T19:24:46;2.50;;;1.20;;
5475;SDS011;2760;50.000;9.194;2023-07-13T19:27:14;3.93;;;1.70;;
5475;SDS011;2760;50.000;9.194;2023-07-13T19:29:41;1.30;;;1.20;;
5475;SDS011;2760;50.000;9.194;2023-07-13T19:32:10;2.73;;;1.63;;
5475;SDS011;2760;50.000;9.194;2023-07-13T19:34:40;2.80;;;1.57;;
5475;SDS011;2760;50.000;9.194;2023-07-13T19:37:11;8.07;;;1.50;;
5475;SDS011;2760;50.000;9.194;2023-07-13T19:39:45;2.00;;;1.50;;
5475;SDS011;2760;50.000;9.194;2023-07-13T19:42:16;5.73;;;1.33;;
5475;SDS011;2760;50.000;9.194;2023-07-13T19:44:45;2.27;;;1.40;;
5475;SDS011;2760;50.000;9.194;2023-07-13T19:47:12;2.77;;;1.70;;
5475;SDS011;2760;50.000;9.194;2023-07-13T19:49:41;2.13;;;1.47;;
5475;SDS011;2760;50.000;9.194;2023-07-13T19:52:09;4.37;;;1.30;;
5475;SDS011;2760;50.000;9.194;2023-07-13T19:54:36;2.67;;;1.50;;
5475;SDS011;2760;50.000;9.194;2023-07-13T19:57:08;6.03;;;2.13;;
5475;SDS011;2760;50.000;9.194;2023-07-13T19:59:38;4.47;;;1.80;;
5475;SDS011;2760;50.000;9.194;2023-07-13T20:02:06;3.07;;;1.80;;
5475;SDS011;2760;50.000;9.194;2023-07-13T20:04:33;6.53;;;1.80;;
5475;SDS011;2760;50.000;9.194;2023-07-13T20:07:01;3.67;;;1.83;;
5475;SDS011;2760;50.000;9.194;2023-07-13T20:09:29;2.63;;;1.50;;
5475;SDS011;2760;50.000;9.194;2023-07-13T20:11:59;2.37;;;1.60;;
5475;SDS011;2760;50.000;9.194;2023-07-13T20:14:26;2.00;;;1.63;;
5475;SDS011;2760;50.000;9.194;2023-07-13T20:16:56;2.93;;;1.77;;
5475;SDS011;2760;50.000;9.194;2023-07-13T20:19:29;2.80;;;1.77;;
5475;SDS011;2760;50.000;9.194;2023-07-13T20:21:59;4.93;;;1.33;;
5475;SDS011;2760;50.000;9.194;2023-07-13T20:24:28;2.80;;;1.80;;
5475;SDS011;2760;50.000;9.194;2023-07-13T20:26:55;10.33;;;2.13;;
5475;SDS011;2760;50.000;9.194;2023-07-13T20:29:22;2.77;;;1.60;;
5475;SDS011;2760;50.000;9.194;2023-07-13T20:31:49;2.20;;;1.73;;
5475;SDS011;2760;50.000;9.194;2023-07-13T20:34:18;1.37;;;1.17;;
5475;SDS011;2760;50.000;9.194;2023-07-13T20:36:46;2.13;;;1.50;;
5475;SDS011;2760;50.000;9.194;2023-07-13T20:39:15;2.93;;;1.53;;
5475;SDS011;2760;50.000;9.194;2023-07-13T20:41:43;3.93;;;2.00;;
5475;SDS011;2760;50.000;9.194;2023-07-13T20:44:10;1.70;;;1.60;;
5475;SDS011;2760;50.000;9.194;2023-07-13T20:46:37;3.03;;;1.70;;
5475;SDS011;2760;50.000;9.194;2023-07-13T20:49:05;3.37;;;1.80;;
5475;SDS011;2760;50.000;9.194;2023-07-13T20:51:32;5.50;;;1.97;;
5475;SDS011;2760;50.000;9.194;2023-07-13T20:53:59;4.10;;;1.73;;
5475;SDS011;2760;50.000;9.194;2023-07-13T20:56:27;4.10;;;2.00;;
5475;SDS011;2760;50.000;9.194;2023-07-13T20:58:55;4.33;;;1.93;;
5475;SDS011;2760;50.000;9.194;2023-07-13T21:01:23;3.07;;;1.70;;
5475;SDS011;2760;50.000;9.194;2023-07-13T21:03:53;2.57;;;2.00;;
5475;SDS011;2760;50.000;9.194;2023-07-13T21:06:22;3.73;;;1.70;;
5475;SDS011;2760;50.000;9.194;2023-07-13T21:08:49;3.43;;;1.77;;
5475;SDS011;2760;50.000;9.194;2023-07-13T21:11:16;3.17;;;2.23;;
5475;SDS011;2760;50.000;9.194;2023-07-13T21:13:44;5.87;;;2.07;;
5475;SDS011;2760;50.000;9.194;2023-07-13T21:16:16;4.40;;;2.17;;
5475;SDS011;2760;50.000;9.194;2023-07-13T21:18:45;2.53;;;1.70;;
5475;SDS011;2760;50.000;9.194;2023-07-13T21:21:14;3.87;;;1.90;;
5475;SDS011;2760;50.000;9.194;2023-07-13T21:23:42;4.70;;;2.10;;
5475;SDS011;2760;50.000;9.194;2023-07-13T21:26:09;2.73;;;1.70;;
5475;SDS011;2760;50.000;9.194;2023-07-13T21:28:37;1.50;;;1.40;;
5475;SDS011;2760;50.000;9.194;2023-07-13T21:31:11;4.27;;;2.00;;
5475;SDS011;2760;50.000;9.194;2023-07-13T21:33:46;3.23;;;1.90;;
5475;SDS011;2760;50.000;9.194;2023-07-13T21:36:12;2.20;;;1.70;;
5475;SDS011;2760;50.000;9.194;2023-07-13T21:38:40;2.53;;;1.60;;
5475;SDS011;2760;50.000;9.194;2023-07-13T21:41:13;4.37;;;2.23;;
5475;SDS011;2760;50.000;9.194;2023-07-13T21:43:46;1.77;;;1.50;;
5475;SDS011;2760;50.000;9.194;2023-07-13T21:46:14;2.87;;;1.67;;
5475;SDS011;2760;50.000;9.194;2023-07-13T21:48:41;2.33;;;2.00;;
5475;SDS011;2760;50.000;9.194;2023-07-13T21:51:15;6.60;;;1.80;;
5475;SDS011;2760;50.000;9.194;2023-07-13T21:53:44;1.90;;;1.40;;
5475;SDS011;2760;50.000;9.194;2023-07-13T21:56:12;3.23;;;1.57;;
5475;SDS011;2760;50.000;9.194;2023-07-13T21:58:40;4.17;;;1.87;;
5475;SDS011;2760;50.000;9.194;2023-07-13T22:01:12;4.90;;;1.70;;
5475;SDS011;2760;50.000;9.194;2023-07-13T22:03:43;3.53;;;1.97;;
5475;SDS011;2760;50.000;9.194;2023-07-13T22:06:17;3.13;;;1.67;;
5475;SDS011;2760;50.000;9.194;2023-07-13T22:08:47;2.80;;;1.87;;
5475;SDS011;2760;50.000;9.194;2023-07-13T22:11:15;1.90;;;1.73;;
5475;SDS011;2760;50.000;9.194;2023-07-13T22:13:43;2.97;;;1.50;;
5475;SDS011;2760;50.000;9.194;2023-07-13T22:16:14;1.87;;;1.50;;